Aeroporto :
LOGIN :

Iscrizione | Disclaimer

   EN    FR    IT 

 










Sommario :    VFR   VFR Marginale   IFR   IFR Intensivo   IFR Molto Intensivo
Visibilità : 
Base nubi : 
>= 8 km
>= 3000ft
5 / 8 km
1000 / 3000 ft
1500m / 5 km
500 / 1000 ft
800 / 1500m
200 / 500 ft
< 800m
< 200 ft
Simboli :   Temporali  Nebbia  Neve Forte  Precipitazioni Forti  Vento > 20 kt
SIGMETs :   Varie  Temporali  Ghiacco  Turbolenza  Onda orograficha  Ceneri Vulcaniche







- Altitudine del aeroporto : 2265 ft
- Codice IATA : CZL


DABC - Mohamed Boudiaf Int. Constantine

ULTIMO METAR :
  • 190130Z 00000KT CAVOK 19/10 Q1017

METARs OBSOLETI :
  • 190100Z 00000KT CAVOK 20/11 Q1017
  • 190030Z 00000KT CAVOK 20/10 Q1018
  • 190000Z 00000KT CAVOK 21/10 Q1018
  • 182330Z 00000KT CAVOK 20/10 Q1018
  • 182300Z 15003KT CAVOK 20/10 Q1018

TAF TAF DABC
Valido dal 19 a 00 ore il 20 a 00 ore UTC


182300Z 1900/1924 16004KT CAVOK
BECMG 1908/1910 24010KT
BECMG 1912/1914 04012KT
PROB30
TEMPO 1913/1918 FEW023TCU
BECMG 1920/1922 12006KT
Nessun NOTAM noto per questo aeroporto.



MetMap, La meteo Aeronautica in un colpo d'occhio ! - Copyright ORBIFLY Dicembre 2007 - Disclaimer

ORBIFLY MET'MAP TEAM :

Programmazione e sviluppo : Alexandra Zaïnal
Concezione e sviluppo : Baudouin d'Aumeries
Co-Programmazione e sviluppo : Marc-Olivier Méhu
Supporto tecnico e logistico : Manuel Goepfert
Aiuto per la traduzione : Arnaldo La Scala

Contatto : metmap@orbifly.com




FONTI E CREDITI :

   NOAA